04PN weather

Strawbridge & Clothier Exton Heliport
Exton, Pennsylvania, United States

Public forecast

Using degrees Fahrenheit for public forecast. Weather courtesy of forecast.io.

METAR (pilot weather report)

Closest report is Brandywine Airport, 3.3 nm (6.1 km) SE. Retrieved 2019/07/23 06:35 UTC (0 seconds ago):

KOQN 230635Z AUTO 33003KT 10SM OVC006 21/20 A2977 RMK AO2

TAF (pilot weather forecast)

Closest forecast is Philadelphia International Airport, 20.3 nm (37.6 km) ESE. Retrieved 2019/07/23 06:44 UTC (0 seconds ago):

TAF KPHL 230536Z 2306/2412 33006KT 4SM SHRA BR SCT010 BKN020 FM230800 VRB03KT 6SM SHRA OVC015 TEMPO 2309/2312 3SM SHRA OVC007 FM231600 33008KT P6SM OVC020 FM231900 30006KT P6SM OVC035 FM240600 35005KT P6SM BKN080 FM240900 35005KT P6SM BKN110